createdAt,value
2017-08-22T00:00:38.610Z,5.00
2017-08-22T00:01:38.550Z,5.10
2017-08-22T00:01:47.728Z,5.90
2017-08-22T00:02:38.632Z,5.30
2017-08-22T00:03:38.584Z,5.80
2017-08-22T00:04:15.375Z,5.90
2017-08-22T00:04:38.638Z,5.90
2017-08-22T00:05:38.608Z,6.00
2017-08-22T00:06:38.755Z,5.60
2017-08-22T00:06:42.967Z,5.80
2017-08-22T00:07:38.637Z,5.20
2017-08-22T00:08:38.771Z,5.60
2017-08-22T00:09:10.614Z,5.30
2017-08-22T00:09:38.664Z,5.40
2017-08-22T00:10:38.781Z,5.00
2017-08-22T00:11:38.226Z,6.47
2017-08-22T00:11:38.688Z,4.90
2017-08-22T00:12:38.798Z,5.40
2017-08-22T00:13:38.721Z,5.20
2017-08-22T00:14:05.885Z,5.73
2017-08-22T00:14:38.811Z,5.50
2017-08-22T00:15:38.754Z,5.30
2017-08-22T00:16:33.499Z,6.27
2017-08-22T00:16:38.827Z,4.90
2017-08-22T00:17:38.771Z,5.00
2017-08-22T00:18:38.838Z,5.20
2017-08-22T00:19:01.153Z,5.97
2017-08-22T00:19:38.800Z,4.90
2017-08-22T00:20:38.851Z,5.00
2017-08-22T00:21:28.785Z,6.17
2017-08-22T00:21:38.830Z,4.90
2017-08-22T00:22:38.973Z,5.40
2017-08-22T00:23:38.859Z,5.10
2017-08-22T00:23:56.405Z,6.20
2017-08-22T00:24:38.981Z,5.70
2017-08-22T00:25:38.888Z,5.10
2017-08-22T00:26:24.058Z,6.97
2017-08-22T00:26:39.002Z,5.20
2017-08-22T00:27:38.896Z,4.80
2017-08-22T00:28:39.012Z,4.70
2017-08-22T00:28:51.680Z,6.70
2017-08-22T00:29:38.932Z,4.50
2017-08-22T00:30:39.035Z,4.90
2017-08-22T00:31:19.309Z,6.60
2017-08-22T00:31:38.956Z,5.20
2017-08-22T00:32:40.056Z,4.90
2017-08-22T00:33:38.984Z,5.50
2017-08-22T00:33:46.901Z,6.53
2017-08-22T00:34:39.049Z,5.30
2017-08-22T00:35:39.008Z,5.40
2017-08-22T00:36:14.545Z,6.97
2017-08-22T00:36:39.163Z,4.60
2017-08-22T00:37:39.033Z,4.60
2017-08-22T00:38:39.178Z,4.80
2017-08-22T00:38:42.148Z,7.50
2017-08-22T00:39:39.063Z,5.60
2017-08-22T00:40:39.196Z,5.40
2017-08-22T00:41:09.797Z,6.70
2017-08-22T00:41:39.094Z,5.40
2017-08-22T00:42:39.206Z,5.50
2017-08-22T00:43:37.383Z,6.70
2017-08-22T00:43:39.117Z,5.20
2017-08-22T00:44:39.219Z,4.90
2017-08-22T00:45:39.142Z,4.90
2017-08-22T00:46:05.037Z,6.97
2017-08-22T00:46:39.232Z,5.20
2017-08-22T00:47:39.169Z,4.70
2017-08-22T00:48:32.638Z,7.13
2017-08-22T00:48:39.246Z,4.40
2017-08-22T00:49:39.201Z,4.80
2017-08-22T00:50:39.262Z,4.50
2017-08-22T00:51:00.266Z,6.80
2017-08-22T00:51:39.232Z,4.40
2017-08-22T00:52:39.376Z,5.10
2017-08-22T00:53:27.869Z,6.80
2017-08-22T00:53:39.246Z,5.10
2017-08-22T00:54:39.393Z,4.90
2017-08-22T00:55:39.274Z,5.10
2017-08-22T00:55:55.507Z,6.53
2017-08-22T00:56:39.409Z,5.40
2017-08-22T00:57:39.300Z,5.50
2017-08-22T00:58:23.121Z,7.07
2017-08-22T00:58:39.314Z,5.60
2017-08-22T00:59:39.339Z,5.10
2017-08-22T01:00:39.336Z,4.90
2017-08-22T01:00:50.664Z,6.80
2017-08-22T01:01:39.352Z,5.50
2017-08-22T01:02:39.363Z,5.10
2017-08-22T01:03:18.256Z,6.73
2017-08-22T01:03:39.378Z,5.10
2017-08-22T01:04:39.392Z,5.90
2017-08-22T01:05:39.402Z,5.20
2017-08-22T01:05:45.887Z,6.60
2017-08-22T01:06:39.415Z,5.40
2017-08-22T01:07:39.597Z,5.30
2017-08-22T01:08:13.433Z,7.27
2017-08-22T01:08:39.437Z,4.80
2017-08-22T01:09:39.619Z,5.10
2017-08-22T01:10:39.466Z,4.50
2017-08-22T01:10:41.009Z,7.17
2017-08-22T01:11:39.622Z,5.00
2017-08-22T01:12:39.498Z,4.80
2017-08-22T01:13:08.549Z,6.60
2017-08-22T01:13:39.631Z,5.10
2017-08-22T01:14:39.519Z,4.70
2017-08-22T01:15:36.128Z,6.70
2017-08-22T01:15:39.647Z,5.50
2017-08-22T01:16:39.549Z,5.40
2017-08-22T01:17:39.664Z,5.40
2017-08-22T01:18:03.672Z,6.90
2017-08-22T01:18:39.576Z,5.30
2017-08-22T01:19:39.674Z,5.00
2017-08-22T01:20:31.247Z,6.50
2017-08-22T01:20:39.609Z,4.70
2017-08-22T01:21:39.690Z,5.40
2017-08-22T01:22:39.624Z,5.50
2017-08-22T01:22:58.794Z,6.50
2017-08-22T01:23:39.804Z,5.20
2017-08-22T01:24:39.651Z,5.00
2017-08-22T01:25:26.426Z,7.30
2017-08-22T01:25:39.811Z,5.70
2017-08-22T01:26:39.677Z,5.40
2017-08-22T01:27:39.832Z,5.00
2017-08-22T01:27:53.965Z,7.10
2017-08-22T01:28:39.714Z,5.30
2017-08-22T01:29:39.852Z,5.50
2017-08-22T01:30:21.640Z,7.03
2017-08-22T01:30:39.726Z,5.00
2017-08-22T01:31:39.854Z,4.50
2017-08-22T01:32:39.763Z,5.20
2017-08-22T01:32:49.204Z,6.90
2017-08-22T01:33:39.869Z,4.90
2017-08-22T01:34:39.786Z,4.50
2017-08-22T01:35:16.852Z,7.10
2017-08-22T01:35:39.892Z,5.00
2017-08-22T01:36:39.811Z,5.10
2017-08-22T01:37:39.896Z,4.90
2017-08-22T01:37:44.513Z,6.70
2017-08-22T01:38:39.837Z,5.10
2017-08-22T01:39:40.016Z,5.10
2017-08-22T01:40:12.188Z,7.43
2017-08-22T01:40:39.854Z,5.50
2017-08-22T01:41:40.026Z,6.10
2017-08-22T01:42:39.841Z,6.97
2017-08-22T01:42:39.888Z,6.00
2017-08-22T01:43:40.042Z,5.70
2017-08-22T01:44:39.909Z,5.60
2017-08-22T01:45:07.513Z,7.00
2017-08-22T01:45:40.072Z,6.00
2017-08-22T01:46:39.939Z,5.00
2017-08-22T01:47:35.073Z,6.57
2017-08-22T01:47:40.070Z,5.00
2017-08-22T01:48:39.964Z,4.80
2017-08-22T01:49:41.106Z,5.50
2017-08-22T01:50:02.739Z,7.50
2017-08-22T01:50:39.985Z,5.60
2017-08-22T01:51:40.095Z,5.20
2017-08-22T01:52:30.264Z,7.50
2017-08-22T01:52:40.009Z,5.10
2017-08-22T01:53:40.109Z,5.10
2017-08-22T01:54:40.041Z,5.30
2017-08-22T01:54:57.927Z,7.43
2017-08-22T01:55:40.232Z,5.00
2017-08-22T01:56:40.061Z,5.20
2017-08-22T01:57:25.535Z,7.80
2017-08-22T01:57:40.245Z,5.30
2017-08-22T01:58:40.097Z,5.10
2017-08-22T01:59:40.254Z,5.10
2017-08-22T01:59:53.198Z,7.73
2017-08-22T02:00:40.113Z,5.40
2017-08-22T02:01:40.271Z,5.20
2017-08-22T02:02:20.757Z,7.00
2017-08-22T02:02:40.145Z,5.30
2017-08-22T02:03:40.279Z,4.90
2017-08-22T02:04:40.159Z,4.90
2017-08-22T02:04:48.350Z,7.83
2017-08-22T02:05:40.306Z,5.30
2017-08-22T02:06:40.196Z,4.60
2017-08-22T02:07:15.930Z,7.87
2017-08-22T02:07:40.308Z,4.60
2017-08-22T02:08:40.220Z,5.40
2017-08-22T02:09:40.327Z,5.10
2017-08-22T02:09:43.556Z,7.40
2017-08-22T02:10:40.245Z,4.60
2017-08-22T02:11:40.440Z,4.80
2017-08-22T02:12:11.226Z,7.30
2017-08-22T02:12:40.263Z,4.90
2017-08-22T02:13:40.451Z,5.10
2017-08-22T02:14:38.861Z,7.00
2017-08-22T02:14:40.293Z,5.60
2017-08-22T02:15:40.467Z,5.60
2017-08-22T02:16:40.317Z,5.40
2017-08-22T02:17:06.544Z,6.60
2017-08-22T02:17:40.477Z,5.70
2017-08-22T02:18:40.343Z,5.90
2017-08-22T02:19:34.881Z,7.27
2017-08-22T02:19:40.491Z,6.70
2017-08-22T02:20:40.367Z,6.20
2017-08-22T02:21:40.503Z,5.20
2017-08-22T02:22:02.554Z,6.70
2017-08-22T02:22:40.394Z,5.50
2017-08-22T02:23:40.522Z,5.60
2017-08-22T02:24:30.117Z,6.90
2017-08-22T02:24:40.423Z,5.80
2017-08-22T02:25:40.541Z,5.50
2017-08-22T02:26:40.444Z,5.10
2017-08-22T02:26:57.780Z,7.10
2017-08-22T02:27:40.646Z,5.40
2017-08-22T02:28:40.469Z,5.40
2017-08-22T02:29:25.399Z,6.90
2017-08-22T02:29:40.657Z,5.20
2017-08-22T02:30:40.496Z,5.50
2017-08-22T02:31:40.671Z,4.90
2017-08-22T02:31:53.020Z,6.97
2017-08-22T02:32:40.521Z,5.40
2017-08-22T02:33:40.691Z,5.20
2017-08-22T02:34:20.606Z,6.93
2017-08-22T02:34:40.549Z,5.40
2017-08-22T02:35:40.702Z,5.90
2017-08-22T02:36:40.569Z,4.90
2017-08-22T02:36:48.180Z,6.13
2017-08-22T02:37:40.716Z,5.60
2017-08-22T02:38:40.594Z,5.40
2017-08-22T02:39:15.786Z,7.30
2017-08-22T02:39:40.731Z,6.20
2017-08-22T02:40:40.633Z,5.90
2017-08-22T02:41:40.743Z,5.80
2017-08-22T02:41:43.606Z,6.90
2017-08-22T02:42:40.648Z,5.70
2017-08-22T02:43:40.858Z,5.70
2017-08-22T02:44:11.225Z,6.80
2017-08-22T02:44:40.671Z,5.60
2017-08-22T02:45:40.868Z,5.80
2017-08-22T02:46:38.781Z,6.60
2017-08-22T02:46:40.697Z,5.90
2017-08-22T02:47:40.780Z,6.20
2017-08-22T02:48:40.735Z,6.00
2017-08-22T02:49:06.461Z,6.37
2017-08-22T02:49:40.897Z,5.80
2017-08-22T02:50:40.752Z,5.60
2017-08-22T02:51:34.569Z,6.53
2017-08-22T02:51:40.913Z,5.60
2017-08-22T02:52:40.778Z,5.70
2017-08-22T02:53:40.938Z,6.00
2017-08-22T02:54:02.199Z,7.50
2017-08-22T02:54:40.799Z,5.90
2017-08-22T02:55:40.933Z,6.10
2017-08-22T02:56:29.748Z,7.33
2017-08-22T02:56:40.827Z,6.30
2017-08-22T02:57:40.949Z,5.90
2017-08-22T02:58:40.852Z,6.30
2017-08-22T02:58:57.324Z,7.40
2017-08-22T02:59:40.970Z,6.00
2017-08-22T03:00:40.875Z,6.20
2017-08-22T03:01:24.895Z,7.20
2017-08-22T03:01:41.087Z,5.90
2017-08-22T03:02:40.899Z,6.40
2017-08-22T03:03:41.093Z,5.40
2017-08-22T03:03:52.472Z,7.30
2017-08-22T03:04:40.924Z,5.90
2017-08-22T03:05:41.104Z,5.40
2017-08-22T03:06:20.026Z,6.77
2017-08-22T03:06:40.948Z,5.20
2017-08-22T03:07:41.119Z,5.20
2017-08-22T03:08:40.967Z,5.70
2017-08-22T03:08:47.596Z,5.63
2017-08-22T03:09:42.155Z,5.90
2017-08-22T03:10:40.999Z,5.80
2017-08-22T03:11:15.187Z,6.40
2017-08-22T03:11:41.146Z,5.70
2017-08-22T03:12:41.027Z,5.70
2017-08-22T03:13:41.160Z,5.90
2017-08-22T03:13:42.778Z,6.20
2017-08-22T03:14:41.048Z,5.70
2017-08-22T03:15:41.174Z,5.90
2017-08-22T03:16:10.315Z,6.27
2017-08-22T03:16:41.072Z,5.70
2017-08-22T03:17:41.190Z,6.20
2017-08-22T03:18:37.973Z,6.40
2017-08-22T03:18:41.100Z,6.00
2017-08-22T03:19:41.304Z,5.40
2017-08-22T03:20:41.130Z,5.20
2017-08-22T03:21:05.560Z,6.60
2017-08-22T03:21:41.320Z,5.40
2017-08-22T03:22:41.151Z,5.20
2017-08-22T03:23:33.206Z,6.80
2017-08-22T03:23:41.328Z,5.30
2017-08-22T03:24:41.173Z,5.60
2017-08-22T03:25:41.346Z,5.80
2017-08-22T03:26:00.874Z,5.43
2017-08-22T03:26:41.202Z,6.00
2017-08-22T03:27:41.355Z,5.30
2017-08-22T03:28:28.493Z,6.17
2017-08-22T03:28:41.219Z,5.70
2017-08-22T03:29:41.373Z,5.30
2017-08-22T03:30:41.250Z,5.40
2017-08-22T03:30:56.107Z,6.00
2017-08-22T03:31:41.389Z,5.30
2017-08-22T03:32:41.272Z,5.70
2017-08-22T03:33:23.687Z,6.70
2017-08-22T03:33:41.408Z,5.70
2017-08-22T03:34:41.304Z,6.60
2017-08-22T03:35:41.511Z,6.40
2017-08-22T03:35:51.309Z,6.47
2017-08-22T03:36:41.324Z,6.10
2017-08-22T03:37:41.526Z,6.30
2017-08-22T03:38:18.845Z,6.63
2017-08-22T03:38:41.342Z,6.80
2017-08-22T03:39:41.542Z,6.10
2017-08-22T03:40:41.369Z,6.30
2017-08-22T03:40:46.420Z,6.60
2017-08-22T03:41:41.554Z,6.10
2017-08-22T03:42:41.399Z,6.50
2017-08-22T03:43:13.958Z,5.80
2017-08-22T03:43:41.569Z,6.30
2017-08-22T03:44:41.414Z,6.40
2017-08-22T03:45:41.583Z,6.10
2017-08-22T03:45:41.706Z,6.57
2017-08-22T03:46:41.452Z,6.10
2017-08-22T03:47:41.605Z,6.10
2017-08-22T03:48:09.315Z,6.40
2017-08-22T03:48:41.471Z,6.00
2017-08-22T03:49:41.612Z,5.60
2017-08-22T03:50:37.157Z,6.17
2017-08-22T03:50:41.490Z,6.10
2017-08-22T03:51:41.725Z,6.10
2017-08-22T03:52:41.514Z,5.90
2017-08-22T03:53:04.971Z,6.27
2017-08-22T03:53:41.745Z,6.40
2017-08-22T03:54:41.544Z,5.80
2017-08-22T03:55:32.612Z,6.63
2017-08-22T03:55:41.756Z,5.80
2017-08-22T03:56:41.567Z,5.60
2017-08-22T03:57:41.767Z,5.30
2017-08-22T03:58:00.321Z,6.13
2017-08-22T03:58:41.595Z,5.70
2017-08-22T03:59:41.790Z,6.20
2017-08-22T04:00:28.093Z,5.87
2017-08-22T04:00:41.620Z,6.80
2017-08-22T04:01:41.793Z,7.30
2017-08-22T04:02:41.639Z,6.50
2017-08-22T04:02:55.843Z,6.57
2017-08-22T04:03:41.813Z,6.20
2017-08-22T04:04:41.662Z,6.30
2017-08-22T04:05:23.523Z,6.90
2017-08-22T04:05:41.827Z,6.10
2017-08-22T04:06:41.687Z,5.80
2017-08-22T04:07:41.739Z,5.90
2017-08-22T04:07:51.138Z,6.43
2017-08-22T04:08:41.712Z,5.90
2017-08-22T04:09:41.859Z,5.80
2017-08-22T04:10:18.727Z,6.77
2017-08-22T04:10:41.740Z,5.90
2017-08-22T04:11:41.867Z,6.80
2017-08-22T04:12:41.823Z,5.90
2017-08-22T04:12:46.340Z,6.83
2017-08-22T04:13:41.880Z,6.30
2017-08-22T04:14:41.785Z,6.90
2017-08-22T04:15:14.106Z,6.70
2017-08-22T04:15:41.895Z,5.70
2017-08-22T04:16:41.811Z,6.10
2017-08-22T04:17:41.735Z,6.80
2017-08-22T04:17:41.905Z,6.20
2017-08-22T04:18:41.833Z,5.90
2017-08-22T04:19:42.027Z,6.10
2017-08-22T04:20:09.681Z,6.90
2017-08-22T04:20:41.862Z,5.60
2017-08-22T04:21:42.029Z,5.80
2017-08-22T04:22:37.292Z,7.57
2017-08-22T04:22:41.903Z,6.50
2017-08-22T04:23:42.042Z,6.60
2017-08-22T04:24:41.902Z,6.40
2017-08-22T04:25:04.876Z,6.63
2017-08-22T04:25:42.052Z,6.10
2017-08-22T04:26:41.936Z,5.60
2017-08-22T04:27:32.489Z,7.03
2017-08-22T04:27:42.174Z,6.10
2017-08-22T04:28:41.961Z,6.20
2017-08-22T04:29:42.172Z,7.10
2017-08-22T04:30:00.176Z,7.10
2017-08-22T04:30:41.986Z,5.60
2017-08-22T04:31:42.187Z,6.10
2017-08-22T04:32:27.795Z,6.93
2017-08-22T04:32:42.006Z,7.30
2017-08-22T04:33:44.150Z,6.50
2017-08-22T04:34:42.026Z,6.70
2017-08-22T04:34:55.464Z,6.50
2017-08-22T04:35:42.215Z,7.50
2017-08-22T04:36:42.050Z,7.50
2017-08-22T04:37:23.065Z,7.30
2017-08-22T04:37:42.238Z,7.30
2017-08-22T04:38:42.079Z,6.60
2017-08-22T04:39:43.274Z,6.40
2017-08-22T04:39:50.798Z,7.40
2017-08-22T04:40:42.104Z,6.00
2017-08-22T04:41:42.259Z,6.30
2017-08-22T04:42:18.414Z,7.13
2017-08-22T04:42:42.126Z,6.70
2017-08-22T04:43:43.292Z,6.70
2017-08-22T04:44:42.146Z,6.70
2017-08-22T04:44:46.062Z,7.17
2017-08-22T04:45:42.387Z,6.20
2017-08-22T04:46:42.182Z,6.60
2017-08-22T04:47:13.661Z,7.70
2017-08-22T04:47:42.401Z,7.00
2017-08-22T04:48:42.199Z,6.90
2017-08-22T04:49:41.348Z,7.37
2017-08-22T04:49:42.414Z,6.40
2017-08-22T04:50:42.225Z,6.60
2017-08-22T04:51:42.433Z,6.10
2017-08-22T04:52:08.965Z,6.90
2017-08-22T04:52:42.244Z,6.30
2017-08-22T04:53:42.437Z,7.20
2017-08-22T04:54:36.632Z,7.10
2017-08-22T04:54:42.267Z,7.70
2017-08-22T04:55:42.455Z,8.40
2017-08-22T04:56:42.312Z,8.00
2017-08-22T04:57:04.293Z,7.30
2017-08-22T04:57:42.363Z,7.60
2017-08-22T04:58:42.322Z,7.40
2017-08-22T04:59:31.979Z,7.33
2017-08-22T04:59:42.483Z,7.30
2017-08-22T05:00:42.339Z,8.00
2017-08-22T05:01:43.416Z,7.80
2017-08-22T05:01:59.590Z,7.40
2017-08-22T05:02:42.366Z,7.30
2017-08-22T05:03:42.405Z,6.80
2017-08-22T05:04:27.199Z,6.73
2017-08-22T05:04:42.391Z,7.00
2017-08-22T05:05:42.523Z,6.50
2017-08-22T05:06:42.425Z,6.50
2017-08-22T05:06:54.861Z,7.03
2017-08-22T05:07:42.533Z,6.20
2017-08-22T05:08:42.448Z,7.30
2017-08-22T05:09:22.448Z,6.93
2017-08-22T05:09:42.546Z,6.80
2017-08-22T05:10:42.475Z,7.00
2017-08-22T05:11:42.558Z,6.70
2017-08-22T05:11:50.078Z,7.40
2017-08-22T05:12:42.490Z,7.30
2017-08-22T05:13:42.576Z,7.30
2017-08-22T05:14:17.677Z,7.77
2017-08-22T05:14:42.510Z,7.40
2017-08-22T05:15:42.587Z,7.60
2017-08-22T05:16:42.541Z,8.00
2017-08-22T05:16:45.294Z,7.23
2017-08-22T05:17:42.601Z,7.70
2017-08-22T05:18:42.565Z,7.20
2017-08-22T05:19:12.892Z,6.70
2017-08-22T05:19:42.615Z,7.00
2017-08-22T05:20:42.578Z,7.30
2017-08-22T05:21:40.547Z,6.23
2017-08-22T05:21:42.629Z,7.10
2017-08-22T05:22:42.604Z,7.60
2017-08-22T05:23:42.744Z,8.10
2017-08-22T05:24:08.116Z,6.03
2017-08-22T05:24:42.636Z,8.00
2017-08-22T05:25:42.756Z,8.40
2017-08-22T05:26:35.720Z,6.00
2017-08-22T05:26:42.654Z,8.00
2017-08-22T05:27:42.770Z,8.40
2017-08-22T05:28:42.677Z,8.80
2017-08-22T05:29:03.336Z,6.60
2017-08-22T05:29:42.783Z,9.00
2017-08-22T05:30:42.707Z,8.80
2017-08-22T05:31:30.996Z,6.07
2017-08-22T05:31:42.793Z,8.90
2017-08-22T05:32:42.746Z,9.30
2017-08-22T05:33:42.805Z,8.80
2017-08-22T05:33:58.606Z,7.00
2017-08-22T05:34:42.759Z,10.40
2017-08-22T05:35:42.822Z,9.50
2017-08-22T05:36:26.269Z,6.07
2017-08-22T05:36:42.773Z,10.70
2017-08-22T05:37:42.840Z,9.80
2017-08-22T05:38:42.793Z,9.70
2017-08-22T05:38:53.889Z,7.00
2017-08-22T05:39:42.853Z,10.90
2017-08-22T05:40:42.820Z,9.20
2017-08-22T05:41:21.579Z,5.90
2017-08-22T05:41:42.969Z,9.40
2017-08-22T05:42:42.842Z,8.70
2017-08-22T05:43:42.980Z,8.50
2017-08-22T05:43:49.196Z,6.80
2017-08-22T05:44:42.872Z,8.60
2017-08-22T05:45:42.994Z,9.20
2017-08-22T05:46:16.795Z,7.17
2017-08-22T05:46:42.891Z,9.70
2017-08-22T05:47:43.007Z,8.90
2017-08-22T05:48:42.932Z,9.30
2017-08-22T05:48:44.471Z,6.60
2017-08-22T05:49:43.019Z,10.00
2017-08-22T05:50:42.940Z,10.00
2017-08-22T05:51:12.101Z,6.80
2017-08-22T05:51:43.034Z,8.80
2017-08-22T05:52:42.964Z,9.60
2017-08-22T05:53:39.754Z,6.33
2017-08-22T05:53:43.048Z,9.60
2017-08-22T05:54:42.990Z,8.70
2017-08-22T05:55:43.070Z,8.40
2017-08-22T05:56:07.371Z,6.47
2017-08-22T05:56:43.010Z,8.10
2017-08-22T05:57:43.059Z,8.40
2017-08-22T05:58:35.035Z,7.10
2017-08-22T05:58:43.045Z,8.00
2017-08-22T05:59:43.099Z,8.20
2017-08-22T06:00:43.056Z,7.60
2017-08-22T06:01:02.644Z,6.70
2017-08-22T06:01:43.109Z,8.30
2017-08-22T06:02:43.085Z,7.90
2017-08-22T06:03:30.303Z,6.50
2017-08-22T06:03:43.249Z,8.10
2017-08-22T06:04:43.104Z,7.80
2017-08-22T06:05:43.233Z,8.90
2017-08-22T06:05:57.926Z,7.60
2017-08-22T06:06:43.128Z,8.20
2017-08-22T06:07:43.223Z,8.40
2017-08-22T06:08:25.588Z,6.97
2017-08-22T06:08:43.152Z,8.40
2017-08-22T06:09:43.236Z,8.80
2017-08-22T06:10:43.176Z,9.20
2017-08-22T06:10:53.206Z,7.40
2017-08-22T06:11:43.273Z,9.50
2017-08-22T06:12:43.216Z,9.00
2017-08-22T06:13:20.851Z,7.07
2017-08-22T06:13:43.263Z,8.90
2017-08-22T06:14:43.226Z,8.50
2017-08-22T06:15:43.278Z,9.00
2017-08-22T06:15:48.455Z,6.50
2017-08-22T06:16:43.245Z,9.00
2017-08-22T06:17:43.290Z,9.50
2017-08-22T06:18:16.138Z,6.47
2017-08-22T06:18:43.276Z,9.00
2017-08-22T06:19:43.415Z,8.40
2017-08-22T06:20:43.292Z,9.00
2017-08-22T06:20:43.756Z,6.37
2017-08-22T06:21:43.419Z,9.20
2017-08-22T06:22:43.322Z,8.40
2017-08-22T06:23:11.407Z,6.33
2017-08-22T06:23:43.430Z,9.40
2017-08-22T06:24:43.341Z,8.30
2017-08-22T06:25:39.896Z,6.67
2017-08-22T06:25:43.448Z,9.50
2017-08-22T06:26:43.367Z,10.10
2017-08-22T06:27:43.466Z,10.40
2017-08-22T06:28:07.598Z,7.43
2017-08-22T06:28:43.393Z,10.00
2017-08-22T06:29:43.474Z,9.50
2017-08-22T06:30:35.229Z,7.07
2017-08-22T06:30:43.416Z,10.10
2017-08-22T06:31:43.490Z,10.80
2017-08-22T06:32:43.437Z,10.50
2017-08-22T06:33:02.867Z,7.17
2017-08-22T06:33:43.500Z,10.50
2017-08-22T06:34:43.462Z,10.50
2017-08-22T06:35:30.587Z,6.90
2017-08-22T06:35:43.520Z,9.60
2017-08-22T06:36:43.476Z,9.80
2017-08-22T06:37:43.529Z,10.70
2017-08-22T06:37:58.346Z,6.63
2017-08-22T06:38:43.506Z,10.30
2017-08-22T06:39:43.630Z,10.70
2017-08-22T06:40:25.917Z,6.80
2017-08-22T06:40:43.528Z,9.90
2017-08-22T06:41:43.639Z,9.90
2017-08-22T06:42:43.556Z,10.00
2017-08-22T06:42:53.622Z,7.10
2017-08-22T06:43:43.653Z,10.50
2017-08-22T06:44:43.583Z,10.50
2017-08-22T06:45:21.234Z,7.80
2017-08-22T06:45:44.696Z,9.70
2017-08-22T06:46:43.599Z,9.80
2017-08-22T06:47:43.677Z,10.10
2017-08-22T06:47:48.815Z,7.50
2017-08-22T06:48:43.637Z,10.30
2017-08-22T06:49:43.691Z,10.50
2017-08-22T06:50:16.452Z,7.00
2017-08-22T06:50:43.652Z,10.90
2017-08-22T06:51:43.703Z,12.30
2017-08-22T06:52:43.672Z,12.20
2017-08-22T06:52:44.535Z,6.83
2017-08-22T06:53:43.681Z,12.20
2017-08-22T06:54:43.750Z,13.20
2017-08-22T06:55:12.197Z,7.50
2017-08-22T06:55:43.726Z,12.00
2017-08-22T06:56:43.773Z,12.70
2017-08-22T06:57:39.820Z,6.70
2017-08-22T06:57:43.738Z,11.70
2017-08-22T06:58:43.877Z,11.60
2017-08-22T06:59:43.752Z,12.20
2017-08-22T07:00:07.498Z,8.10
2017-08-22T07:00:43.888Z,12.70
2017-08-22T07:01:43.777Z,12.10
2017-08-22T07:02:35.065Z,7.87
2017-08-22T07:02:43.905Z,11.40
2017-08-22T07:03:43.835Z,10.90
2017-08-22T07:04:43.917Z,11.80
2017-08-22T07:05:02.701Z,6.87
2017-08-22T07:05:43.821Z,12.20
2017-08-22T07:06:43.929Z,12.20
2017-08-22T07:07:30.267Z,7.23
2017-08-22T07:07:43.847Z,12.20
2017-08-22T07:08:43.948Z,12.60
2017-08-22T07:09:43.884Z,11.30
2017-08-22T07:09:57.959Z,7.57
2017-08-22T07:10:43.956Z,10.70
2017-08-22T07:11:43.897Z,10.50
2017-08-22T07:12:25.515Z,7.60
2017-08-22T07:12:44.995Z,11.60
2017-08-22T07:13:43.924Z,12.20
2017-08-22T07:14:43.983Z,11.60
2017-08-22T07:14:53.186Z,8.63
2017-08-22T07:15:43.940Z,11.80
2017-08-22T07:16:44.003Z,11.90
2017-08-22T07:17:20.744Z,7.70
2017-08-22T07:17:43.970Z,11.40
2017-08-22T07:18:44.115Z,12.20
2017-08-22T07:19:43.995Z,12.30
2017-08-22T07:19:48.324Z,7.40
2017-08-22T07:20:44.100Z,11.30
2017-08-22T07:21:44.016Z,11.40
2017-08-22T07:22:15.967Z,6.87
2017-08-22T07:22:44.107Z,11.60
2017-08-22T07:23:44.039Z,11.50
2017-08-22T07:24:43.544Z,7.90
2017-08-22T07:24:44.127Z,10.70
2017-08-22T07:25:44.064Z,12.00
2017-08-22T07:26:44.137Z,11.50
2017-08-22T07:27:11.132Z,7.30
2017-08-22T07:27:44.089Z,10.60
2017-08-22T07:28:44.149Z,11.40
2017-08-22T07:29:38.712Z,9.00
2017-08-22T07:29:44.105Z,11.00
2017-08-22T07:30:44.166Z,11.20
2017-08-22T07:31:44.134Z,10.70
2017-08-22T07:32:06.364Z,7.40
2017-08-22T07:32:44.174Z,10.30
2017-08-22T07:33:44.274Z,11.20
2017-08-22T07:34:33.969Z,7.40
2017-08-22T07:34:46.238Z,10.50
2017-08-22T07:35:44.208Z,10.60
2017-08-22T07:36:44.200Z,10.80
2017-08-22T07:37:01.505Z,7.20
2017-08-22T07:37:44.205Z,10.80
2017-08-22T07:38:45.236Z,10.60
2017-08-22T07:39:29.102Z,7.30
2017-08-22T07:39:44.237Z,10.90
2017-08-22T07:40:54.877Z,10.10
2017-08-22T07:41:44.426Z,10.40
2017-08-22T07:41:56.654Z,6.07
2017-08-22T07:42:45.487Z,9.60
2017-08-22T07:43:44.280Z,8.40
2017-08-22T07:44:24.231Z,7.80
2017-08-22T07:44:45.386Z,9.90
2017-08-22T07:45:44.293Z,10.80
2017-08-22T07:46:44.385Z,10.80
2017-08-22T07:46:51.779Z,7.10
2017-08-22T07:47:44.363Z,10.90
2017-08-22T07:48:45.398Z,10.90
2017-08-22T07:49:19.461Z,7.10
2017-08-22T07:49:44.416Z,10.00
2017-08-22T07:50:49.426Z,8.30
2017-08-22T07:51:44.467Z,11.30
2017-08-22T07:51:47.055Z,7.53
2017-08-22T07:52:44.376Z,9.50
2017-08-22T07:53:44.426Z,8.80
2017-08-22T07:54:14.669Z,8.40
2017-08-22T07:54:44.399Z,7.10
2017-08-22T07:55:44.439Z,7.60
2017-08-22T07:56:42.342Z,9.23
2017-08-22T07:56:44.425Z,9.50
2017-08-22T07:57:44.454Z,9.40
2017-08-22T07:58:44.456Z,10.50
2017-08-22T07:59:10.022Z,9.00
2017-08-22T07:59:44.571Z,11.80
2017-08-22T08:00:44.468Z,11.10
2017-08-22T08:01:37.588Z,9.70
2017-08-22T08:01:44.581Z,11.10
2017-08-22T08:02:44.499Z,11.20
2017-08-22T08:03:44.595Z,12.30
2017-08-22T08:04:05.197Z,8.47
2017-08-22T08:04:44.518Z,12.60
2017-08-22T08:05:44.608Z,12.00
2017-08-22T08:06:32.871Z,8.60
2017-08-22T08:06:44.548Z,12.90
2017-08-22T08:07:44.621Z,12.40
2017-08-22T08:08:44.572Z,13.40
2017-08-22T08:09:00.490Z,9.90
2017-08-22T08:09:44.635Z,12.90
2017-08-22T08:10:44.594Z,13.10
2017-08-22T08:11:28.223Z,8.33
2017-08-22T08:11:44.646Z,11.80
2017-08-22T08:12:44.620Z,12.60
2017-08-22T08:13:44.664Z,11.70
2017-08-22T08:13:55.848Z,9.60
2017-08-22T08:14:44.722Z,11.50
2017-08-22T08:15:44.678Z,11.20
2017-08-22T08:16:23.493Z,8.80
2017-08-22T08:16:44.659Z,11.10
2017-08-22T08:17:44.698Z,10.40
2017-08-22T08:18:44.682Z,9.40
2017-08-22T08:18:51.073Z,9.30
2017-08-22T08:19:44.815Z,11.30
2017-08-22T08:20:44.706Z,11.30
2017-08-22T08:21:18.733Z,9.53
2017-08-22T08:21:44.818Z,11.00
2017-08-22T08:22:44.738Z,11.10
2017-08-22T08:23:44.840Z,11.70
2017-08-22T08:23:46.369Z,8.60
2017-08-22T08:24:44.765Z,10.60
2017-08-22T08:25:44.849Z,11.00
2017-08-22T08:26:14.044Z,8.43
2017-08-22T08:26:44.780Z,10.70
2017-08-22T08:27:44.865Z,11.90
2017-08-22T08:28:41.694Z,8.40
2017-08-22T08:28:44.815Z,11.30
2017-08-22T08:29:44.876Z,10.90
2017-08-22T08:30:44.839Z,12.00
2017-08-22T08:31:09.321Z,8.20
2017-08-22T08:31:44.887Z,12.50
2017-08-22T08:32:44.876Z,13.20
2017-08-22T08:33:36.934Z,7.53
2017-08-22T08:33:45.926Z,12.70
2017-08-22T08:34:44.883Z,13.10
2017-08-22T08:35:44.912Z,12.20
2017-08-22T08:36:04.578Z,8.50
2017-08-22T08:36:44.901Z,13.60
2017-08-22T08:37:45.031Z,13.00
2017-08-22T08:38:32.120Z,8.37
2017-08-22T08:38:44.944Z,14.40
2017-08-22T08:39:45.044Z,15.00
2017-08-22T08:40:44.954Z,13.60
2017-08-22T08:40:59.792Z,9.03
2017-08-22T08:41:46.081Z,13.80
2017-08-22T08:42:44.976Z,14.20
2017-08-22T08:43:27.394Z,8.77
2017-08-22T08:43:45.066Z,15.30
2017-08-22T08:44:45.012Z,14.50
2017-08-22T08:45:45.018Z,14.20
2017-08-22T08:45:54.990Z,8.43
2017-08-22T08:46:46.139Z,15.20
2017-08-22T08:47:45.040Z,15.70
2017-08-22T08:48:22.583Z,8.00
2017-08-22T08:48:46.152Z,15.70
2017-08-22T08:49:45.070Z,15.50
2017-08-22T08:50:45.084Z,15.30
2017-08-22T08:50:50.196Z,7.97
2017-08-22T08:51:47.193Z,14.20
2017-08-22T08:52:45.104Z,15.00
2017-08-22T08:53:17.833Z,7.70
2017-08-22T08:53:45.142Z,15.50
2017-08-22T08:54:45.130Z,15.10
2017-08-22T08:55:45.306Z,15.20
2017-08-22T08:55:45.521Z,8.20
2017-08-22T08:56:45.157Z,15.20
2017-08-22T08:57:46.214Z,15.70
2017-08-22T08:58:13.130Z,8.80
2017-08-22T08:58:45.173Z,14.80
2017-08-22T08:59:46.220Z,16.30
2017-08-22T09:00:40.717Z,9.30
2017-08-22T09:00:45.206Z,13.70
2017-08-22T09:01:45.311Z,13.80
2017-08-22T09:02:45.216Z,15.00
2017-08-22T09:03:08.294Z,8.20
2017-08-22T09:03:45.326Z,15.10
2017-08-22T09:04:45.247Z,14.10
2017-08-22T09:05:35.989Z,9.40
2017-08-22T09:05:45.337Z,14.60
2017-08-22T09:06:45.271Z,14.30
2017-08-22T09:07:45.352Z,14.80
2017-08-22T09:08:03.603Z,8.43
2017-08-22T09:08:45.299Z,14.60
2017-08-22T09:09:45.363Z,14.70
2017-08-22T09:10:31.349Z,8.83
2017-08-22T09:10:45.318Z,13.10
2017-08-22T09:11:45.374Z,14.40
2017-08-22T09:12:45.340Z,15.50
2017-08-22T09:12:58.896Z,8.20
2017-08-22T09:13:45.494Z,15.20
2017-08-22T09:14:45.371Z,15.60
2017-08-22T09:15:26.471Z,8.70
2017-08-22T09:15:45.510Z,15.20
2017-08-22T09:16:45.396Z,15.10
2017-08-22T09:17:45.520Z,14.50
2017-08-22T09:17:54.087Z,8.50
2017-08-22T09:18:45.429Z,14.80
2017-08-22T09:19:45.534Z,14.80
2017-08-22T09:20:21.687Z,8.70
2017-08-22T09:20:45.453Z,15.10
2017-08-22T09:21:46.570Z,15.10
2017-08-22T09:22:45.473Z,14.80
2017-08-22T09:22:49.248Z,8.40
2017-08-22T09:23:46.578Z,15.40